Time;durP1;ratioP1;P1;durP2;ratioP2;P2;SDS_P1;SDS_P2;PMS_P1;PMS_P2;Temp;Humidity;BMP_temperature;BMP_pressure;BME280_temperature;BME280_humidity;BME280_pressure;Samples;Min_cycle;Max_cycle;Signal;HPM_P1;HPM_P2
2022/08/04 00:00:14;;;;;;;7.13;4.30;;;22.90;99.90;;;;;;4986322;28;20054;-70
2022/08/04 00:03:17;;;;;;;7.75;3.65;;;23.00;99.90;;;;;;5036632;28;20080;-70
2022/08/04 00:06:07;;;;;;;11.32;4.28;;;23.00;99.90;;;;;;5037098;28;20084;-70
2022/08/04 00:08:49;;;;;;;15.63;4.65;;;22.90;99.90;;;;;;5037118;28;20034;-70
2022/08/04 00:11:23;;;;;;;11.25;4.57;;;22.90;99.90;;;;;;5037984;28;20112;-70
2022/08/04 00:14:10;;;;;;;11.57;4.18;;;22.90;99.90;;;;;;5038206;28;20108;-70
2022/08/04 00:16:37;;;;;;;12.13;4.40;;;22.90;99.90;;;;;;5038025;28;20099;-70
2022/08/04 00:19:09;;;;;;;14.13;4.68;;;22.80;99.90;;;;;;5038168;28;20120;-70
2022/08/04 00:21:38;;;;;;;10.57;4.47;;;22.80;99.90;;;;;;5037922;28;20091;-70
2022/08/04 00:24:05;;;;;;;11.40;4.32;;;22.90;99.90;;;;;;5037950;28;20048;-70
2022/08/04 00:26:32;;;;;;;9.18;4.13;;;22.90;99.90;;;;;;5037597;28;20125;-70
2022/08/04 00:28:59;;;;;;;12.18;4.82;;;22.80;99.90;;;;;;5038021;28;20057;-70
2022/08/04 00:31:26;;;;;;;11.30;4.03;;;22.80;99.90;;;;;;5037454;28;20041;-70
2022/08/04 00:33:53;;;;;;;13.38;5.05;;;22.80;99.90;;;;;;5037732;28;20060;-70
2022/08/04 00:36:20;;;;;;;13.02;4.25;;;22.90;99.90;;;;;;5037495;28;20056;-70
2022/08/04 00:38:46;;;;;;;11.80;4.25;;;22.80;99.90;;;;;;5037406;28;20037;-70
2022/08/04 00:41:21;;;;;;;12.93;4.15;;;22.80;99.90;;;;;;5037474;28;20423;-70
2022/08/04 00:44:03;;;;;;;8.13;4.47;;;22.70;99.90;;;;;;5037725;28;20041;-70
2022/08/04 00:46:56;;;;;;;9.82;3.95;;;22.70;99.90;;;;;;5037472;28;20369;-70
2022/08/04 00:49:58;;;;;;;12.40;4.53;;;22.70;99.90;;;;;;5037272;28;20389;-70
2022/08/04 00:52:36;;;;;;;9.77;3.90;;;22.70;99.90;;;;;;5036177;28;20081;-70
2022/08/04 00:55:26;;;;;;;11.93;4.40;;;22.80;99.90;;;;;;5037337;28;20476;-70
2022/08/04 00:58:15;;;;;;;9.40;4.25;;;22.80;99.90;;;;;;5035843;28;20041;-70
2022/08/04 01:00:51;;;;;;;11.50;4.47;;;22.70;99.90;;;;;;5037063;28;20049;-71
2022/08/04 01:03:55;;;;;;;;;;;22.70;99.90;;;;;;5037437;28;20050;-70
2022/08/04 01:06:33;;;;;;;11.00;4.47;;;22.60;99.90;;;;;;5015276;28;19925;-70
2022/08/04 01:09:24;;;;;;;11.55;4.43;;;22.60;99.90;;;;;;5015521;28;20099;-70
2022/08/04 01:12:19;;;;;;;9.70;4.45;;;22.50;99.90;;;;;;5030927;28;20050;-70
2022/08/04 01:15:00;;;;;;;11.07;4.80;;;22.60;99.90;;;;;;5037026;28;20338;-70
2022/08/04 01:17:42;;;;;;;12.35;4.68;;;22.40;99.90;;;;;;5036953;28;20433;-70
2022/08/04 01:20:10;;;;;;;11.82;4.88;;;22.50;99.90;;;;;;5035704;28;20041;-70
2022/08/04 01:23:00;;;;;;;13.40;5.72;;;22.40;99.90;;;;;;5035659;28;20049;-70
2022/08/04 01:25:41;;;;;;;13.18;5.53;;;22.40;99.90;;;;;;5036985;28;20374;-70
2022/08/04 01:28:35;;;;;;;11.55;4.57;;;22.40;99.90;;;;;;5036611;28;20077;-70
2022/08/04 01:31:08;;;;;;;10.43;4.90;;;22.30;99.90;;;;;;5036873;28;20069;-73
2022/08/04 01:33:38;;;;;;;11.70;4.60;;;22.30;99.90;;;;;;5035238;28;20049;-70
2022/08/04 01:36:05;;;;;;;12.38;4.40;;;22.30;99.90;;;;;;5036791;28;20052;-70
2022/08/04 01:38:39;;;;;;;9.48;4.25;;;22.20;99.90;;;;;;5036732;28;20051;-71
2022/08/04 01:41:12;;;;;;;13.35;4.68;;;22.20;99.90;;;;;;5036524;28;20112;-70
2022/08/04 01:43:43;;;;;;;10.75;4.70;;;22.30;99.90;;;;;;5036836;28;20038;-71
2022/08/04 01:46:11;;;;;;;10.57;4.90;;;22.30;99.90;;;;;;5036567;28;20107;-70
2022/08/04 01:48:44;;;;;;;10.13;4.30;;;22.30;99.90;;;;;;5036606;28;20042;-70
2022/08/04 01:51:11;;;;;;;11.70;4.78;;;22.20;99.90;;;;;;5035717;28;20107;-70
2022/08/04 01:53:39;;;;;;;10.82;5.38;;;22.20;99.90;;;;;;5036337;28;20042;-70
2022/08/04 01:56:07;;;;;;;14.48;4.63;;;22.10;99.90;;;;;;5036297;28;20433;-70
2022/08/04 01:58:34;;;;;;;9.48;4.57;;;22.10;99.90;;;;;;5036373;28;20033;-70
2022/08/04 02:01:03;;;;;;;14.05;5.13;;;22.10;99.90;;;;;;5036135;28;20049;-74
2022/08/04 02:03:29;;;;;;;11.35;5.10;;;22.10;99.90;;;;;;5036018;28;20434;-70
2022/08/04 02:06:30;;;;;;;10.80;4.95;;;22.10;99.90;;;;;;5036328;28;20092;-70
2022/08/04 02:09:15;;;;;;;12.20;5.22;;;22.10;99.90;;;;;;5019865;28;20434;-70
2022/08/04 02:11:48;;;;;;;8.73;4.38;;;22.00;99.90;;;;;;5036235;28;20045;-70
2022/08/04 02:14:40;;;;;;;10.43;4.75;;;21.90;99.90;;;;;;5035727;28;20295;-70
2022/08/04 02:17:31;;;;;;;13.05;4.93;;;21.90;99.90;;;;;;5039888;28;20041;-70
2022/08/04 02:20:14;;;;;;;12.65;5.28;;;21.90;99.90;;;;;;5037302;28;20049;-70
2022/08/04 02:23:00;;;;;;;11.48;5.00;;;21.80;99.90;;;;;;5040270;28;20121;-70
2022/08/04 02:25:31;;;;;;;11.30;5.57;;;21.80;99.90;;;;;;5038992;28;20041;-70
2022/08/04 02:28:07;;;;;;;10.23;4.85;;;21.80;99.90;;;;;;5039834;28;20434;-70
2022/08/04 02:30:36;;;;;;;;;;;21.80;99.90;;;;;;5040788;28;20038;-70
2022/08/04 02:33:03;;;;;;;13.82;4.53;;;21.70;99.90;;;;;;5038701;28;19920;-70
2022/08/04 02:35:35;;;;;;;8.90;5.13;;;21.70;99.90;;;;;;5040036;28;20042;-70
2022/08/04 02:38:15;;;;;;;14.00;5.30;;;21.70;99.90;;;;;;5039625;28;20049;-70
2022/08/04 02:40:41;;;;;;;13.43;4.82;;;21.80;99.90;;;;;;5039874;28;20047;-70
2022/08/04 02:43:09;;;;;;;8.38;5.07;;;21.90;99.90;;;;;;5039987;28;20033;-70
2022/08/04 02:45:37;;;;;;;15.93;5.35;;;21.80;99.90;;;;;;5038860;28;20338;-70
2022/08/04 02:48:03;;;;;;;12.38;5.00;;;21.90;99.90;;;;;;5038748;28;20041;-70
2022/08/04 02:50:34;;;;;;;10.30;4.95;;;21.90;99.90;;;;;;5039465;28;20041;-70
2022/08/04 02:53:02;;;;;;;14.55;5.40;;;21.80;99.90;;;;;;5039999;28;20426;-69
2022/08/04 02:55:29;;;;;;;13.30;5.13;;;21.80;99.90;;;;;;5039749;28;20112;-70
2022/08/04 02:57:57;;;;;;;11.35;5.00;;;21.80;99.90;;;;;;5039571;28;20041;-70
2022/08/04 03:00:23;;;;;;;11.20;4.97;;;21.80;99.90;;;;;;5039245;28;20442;-70
2022/08/04 03:03:04;;;;;;;13.35;5.97;;;21.70;99.90;;;;;;5039212;28;20175;-70
2022/08/04 03:05:50;;;;;;;8.80;4.88;;;21.70;99.90;;;;;;5038550;28;20071;-70
2022/08/04 03:08:40;;;;;;;9.82;4.80;;;21.60;99.90;;;;;;5039421;28;20046;-70
2022/08/04 03:11:33;;;;;;;11.07;6.32;;;21.60;99.90;;;;;;5039297;28;20442;-70
2022/08/04 03:14:35;;;;;;;12.48;5.50;;;21.60;99.90;;;;;;5039213;28;20041;-70
2022/08/04 03:17:36;;;;;;;15.52;6.18;;;21.60;99.90;;;;;;5039233;28;20079;-70
2022/08/04 03:20:11;;;;;;;10.30;5.70;;;21.50;99.90;;;;;;5038117;28;20048;-70
2022/08/04 03:22:57;;;;;;;13.45;5.88;;;21.60;99.90;;;;;;5037911;28;20037;-70
2022/08/04 03:25:51;;;;;;;11.43;5.38;;;21.60;99.90;;;;;;5039045;28;20418;-70
2022/08/04 03:28:32;;;;;;;17.42;5.75;;;21.60;99.90;;;;;;5037552;28;20339;-70
2022/08/04 03:31:28;;;;;;;12.35;5.53;;;21.60;99.90;;;;;;5038736;28;20060;-70
2022/08/04 03:34:16;;;;;;;13.75;5.28;;;21.60;99.90;;;;;;5038673;28;20049;-70
2022/08/04 03:36:48;;;;;;;12.48;5.65;;;21.50;99.90;;;;;;5038053;28;20120;-70
2022/08/04 03:39:25;;;;;;;13.57;5.40;;;21.50;99.90;;;;;;5038706;28;20072;-71
2022/08/04 03:42:09;;;;;;;16.95;5.88;;;21.60;99.90;;;;;;5038925;28;20049;-70
2022/08/04 03:45:18;;;;;;;12.60;5.20;;;21.60;99.90;;;;;;5038515;28;20517;-72
2022/08/04 03:48:16;;;;;;;9.60;5.50;;;21.60;99.90;;;;;;5038458;28;20079;-70
2022/08/04 03:53:07;;;;;;;12.27;5.40;;;21.50;99.90;;;;;;5028363;28;20128;-70
2022/08/04 03:53:51;;;;;;;13.13;5.53;;;21.50;99.90;;;;;;5038413;28;20073;-70
2022/08/04 03:56:28;;;;;;;12.55;5.40;;;21.50;99.90;;;;;;5037319;28;20124;-70
2022/08/04 03:59:15;;;;;;;12.27;4.80;;;21.50;99.90;;;;;;5038668;28;20394;-70
2022/08/04 04:02:12;;;;;;;9.32;5.47;;;21.60;99.90;;;;;;5036814;28;20053;-71
2022/08/04 04:05:20;;;;;;;12.63;4.88;;;21.70;99.90;;;;;;5038337;28;20131;-70
2022/08/04 04:08:09;;;;;;;11.77;5.63;;;21.70;99.90;;;;;;5037070;28;20049;-70
2022/08/04 04:11:12;;;;;;;11.45;5.57;;;21.70;99.90;;;;;;5037174;28;20053;-70
2022/08/04 04:13:37;;;;;;;12.60;5.40;;;21.70;99.90;;;;;;5029711;28;20335;-70
2022/08/04 04:16:36;;;;;;;9.38;5.43;;;21.70;99.90;;;;;;5038183;28;20041;-70
2022/08/04 04:19:16;;;;;;;14.65;6.18;;;21.70;99.90;;;;;;5038184;28;20079;-70
2022/08/04 04:22:13;;;;;;;14.15;6.00;;;21.70;99.90;;;;;;5038080;28;20124;-70
2022/08/04 04:24:43;;;;;;;12.35;5.78;;;21.70;99.90;;;;;;5037765;28;20438;-70
2022/08/04 04:27:33;;;;;;;12.05;6.40;;;21.70;99.90;;;;;;5037922;28;20041;-70
2022/08/04 04:30:25;;;;;;;13.50;6.15;;;21.80;99.90;;;;;;5038250;28;20038;-70
2022/08/04 04:32:56;;;;;;;10.50;5.95;;;21.80;99.90;;;;;;5036445;28;20053;-70
2022/08/04 04:36:01;;;;;;;13.27;6.13;;;21.80;99.90;;;;;;5037874;28;20104;-70
2022/08/04 04:38:59;;;;;;;11.18;6.03;;;21.90;99.90;;;;;;5033330;28;20060;-70
2022/08/04 04:41:53;;;;;;;15.88;7.25;;;21.90;99.90;;;;;;5036788;28;20128;-70
2022/08/04 04:44:45;;;;;;;10.18;5.72;;;22.00;99.90;;;;;;5037702;28;20334;-70
2022/08/04 04:47:23;;;;;;;14.63;4.93;;;22.10;99.90;;;;;;5037284;28;20504;-70
2022/08/04 04:49:56;;;;;;;10.35;5.40;;;22.20;99.90;;;;;;5036578;28;20044;-70
2022/08/04 04:52:36;;;;;;;13.30;5.30;;;22.10;99.90;;;;;;5036720;28;20037;-70
2022/08/04 04:55:27;;;;;;;11.93;5.43;;;22.10;99.90;;;;;;5037216;28;20068;-70
2022/08/04 04:57:58;;;;;;;8.35;5.30;;;22.20;99.90;;;;;;5033916;28;20045;-70
2022/08/04 05:00:43;;;;;;;12.10;6.00;;;22.20;99.90;;;;;;5036299;28;20056;-68
2022/08/04 05:03:11;;;;;;;13.73;5.68;;;22.20;99.90;;;;;;5036792;28;20124;-70
2022/08/04 05:05:58;;;;;;;12.60;5.60;;;22.30;99.90;;;;;;5037309;28;20045;-70
2022/08/04 05:08:29;;;;;;;;;;;22.30;99.90;;;;;;5037462;28;20041;-70
2022/08/04 05:11:06;;;;;;;11.82;5.75;;;22.40;99.90;;;;;;5037088;28;19917;-70
2022/08/04 05:13:37;;;;;;;13.27;6.60;;;22.40;99.90;;;;;;5037091;28;20037;-70
2022/08/04 05:16:24;;;;;;;14.02;6.45;;;22.40;99.90;;;;;;5036935;28;20051;-70
2022/08/04 05:19:18;;;;;;;13.65;6.57;;;22.50;99.90;;;;;;5035881;28;20325;-70
2022/08/04 05:22:07;;;;;;;12.07;6.70;;;22.70;99.90;;;;;;5037083;28;20080;-70
2022/08/04 05:24:39;;;;;;;13.55;7.38;;;22.80;99.90;;;;;;5037055;28;20046;-70
2022/08/04 05:27:13;;;;;;;11.95;6.00;;;22.80;99.90;;;;;;5037005;28;20324;-70
2022/08/04 05:29:50;;;;;;;13.43;6.78;;;22.90;99.90;;;;;;5036772;28;20041;-70
2022/08/04 05:32:23;;;;;;;14.85;7.88;;;23.00;99.90;;;;;;5036437;28;20112;-70
2022/08/04 05:34:57;;;;;;;15.63;7.55;;;23.10;99.90;;;;;;5036629;28;20421;-70
2022/08/04 05:37:25;;;;;;;11.82;6.25;;;23.20;99.90;;;;;;5036710;28;20325;-70
2022/08/04 05:40:03;;;;;;;13.55;6.70;;;23.20;99.90;;;;;;5036821;28;20385;-70
2022/08/04 05:42:30;;;;;;;14.43;7.47;;;23.40;99.90;;;;;;5035765;28;20418;-70
2022/08/04 05:44:56;;;;;;;18.85;8.18;;;23.60;99.90;;;;;;5036651;28;20041;-71
2022/08/04 05:47:24;;;;;;;18.52;7.32;;;23.50;99.90;;;;;;5035365;28;20091;-70
2022/08/04 05:49:51;;;;;;;20.98;8.23;;;23.60;99.90;;;;;;5035852;28;20033;-70
2022/08/04 05:52:17;;;;;;;14.07;6.30;;;23.70;99.90;;;;;;5036571;28;20327;-70
2022/08/04 05:54:44;;;;;;;15.60;6.40;;;23.80;99.90;;;;;;5035483;28;20144;-70
2022/08/04 05:57:11;;;;;;;15.73;6.97;;;23.90;99.90;;;;;;5036548;28;20048;-70
2022/08/04 05:59:39;;;;;;;13.07;6.32;;;24.10;99.90;;;;;;5035107;28;20041;-70
2022/08/04 06:02:08;;;;;;;14.43;6.78;;;24.20;99.90;;;;;;5034887;28;20085;-70
2022/08/04 06:04:36;;;;;;;19.30;7.95;;;24.40;99.90;;;;;;5036134;28;20345;-70
2022/08/04 06:07:02;;;;;;;14.25;6.65;;;24.40;99.90;;;;;;5036257;28;20063;-70
2022/08/04 06:09:29;;;;;;;14.02;7.00;;;24.60;99.90;;;;;;5036542;28;20034;-70
2022/08/04 06:12:02;;;;;;;15.18;6.28;;;24.60;99.90;;;;;;5035177;28;20418;-70
2022/08/04 06:14:40;;;;;;;13.88;6.45;;;24.70;99.90;;;;;;5036349;28;20042;-70
2022/08/04 06:17:08;;;;;;;15.23;6.00;;;24.60;99.90;;;;;;5035316;28;20041;-70
2022/08/04 06:19:35;;;;;;;15.05;6.78;;;24.80;99.90;;;;;;5036463;28;20131;-70
2022/08/04 06:22:04;;;;;;;13.00;5.95;;;24.80;99.90;;;;;;5035205;28;20049;-70
2022/08/04 06:24:31;;;;;;;15.27;6.65;;;24.90;99.90;;;;;;5036281;28;20055;-70
2022/08/04 06:26:57;;;;;;;14.77;5.97;;;24.90;99.90;;;;;;5035988;28;20120;-70
2022/08/04 06:29:32;;;;;;;14.52;5.95;;;25.00;99.90;;;;;;5035155;28;20040;-71
2022/08/04 06:32:01;;;;;;;12.63;6.07;;;25.10;99.90;;;;;;5035020;28;20113;-70
2022/08/04 06:34:29;;;;;;;13.90;6.32;;;25.20;99.90;;;;;;5036115;28;20038;-70
2022/08/04 06:36:57;;;;;;;16.70;6.40;;;25.30;99.90;;;;;;5036271;28;20050;-70
2022/08/04 06:39:24;;;;;;;12.52;5.32;;;25.40;99.90;;;;;;5035176;28;20053;-70
2022/08/04 06:41:52;;;;;;;14.50;4.70;;;25.50;99.90;;;;;;5036175;28;20053;-70
2022/08/04 06:44:20;;;;;;;15.52;6.00;;;25.70;99.90;;;;;;5035160;28;20330;-70
2022/08/04 06:46:46;;;;;;;13.65;5.80;;;25.80;99.90;;;;;;5035814;28;20414;-70
2022/08/04 06:49:13;;;;;;;15.23;5.80;;;26.10;99.90;;;;;;5036216;28;20108;-70
2022/08/04 06:51:41;;;;;;;13.20;4.85;;;26.10;99.90;;;;;;5036166;28;20033;-70
2022/08/04 06:54:06;;;;;;;12.60;5.32;;;26.30;99.90;;;;;;5036147;28;20308;-70
2022/08/04 06:56:38;;;;;;;11.07;4.75;;;26.30;99.90;;;;;;5035029;28;20033;-70
2022/08/04 06:59:06;;;;;;;9.93;4.97;;;26.40;99.90;;;;;;5035947;28;20045;-70
2022/08/04 07:01:34;;;;;;;10.82;6.15;;;26.30;99.90;;;;;;5035540;28;20088;-71
2022/08/04 07:03:59;;;;;;;10.68;4.43;;;26.20;99.90;;;;;;5039266;28;20049;-70
2022/08/04 07:06:25;;;;;;;11.10;4.20;;;26.20;99.90;;;;;;5039586;28;20034;-70
2022/08/04 07:08:53;;;;;;;10.90;4.63;;;26.40;99.90;;;;;;5039314;28;20046;-70
2022/08/04 07:11:20;;;;;;;7.28;4.20;;;26.50;99.90;;;;;;5038263;28;20038;-70
2022/08/04 07:13:46;;;;;;;12.38;5.43;;;26.60;99.90;;;;;;5039067;28;20480;-70
2022/08/04 07:16:14;;;;;;;11.30;5.07;;;26.60;99.90;;;;;;5039465;28;20033;-70
2022/08/04 07:18:40;;;;;;;14.80;4.80;;;26.70;99.90;;;;;;5038091;28;20042;-70
2022/08/04 07:21:06;;;;;;;9.35;4.22;;;26.90;99.90;;;;;;5039360;28;20037;-70
2022/08/04 07:23:32;;;;;;;14.82;3.97;;;27.10;99.90;;;;;;5038995;28;20033;-70
2022/08/04 07:25:58;;;;;;;12.30;3.97;;;27.10;99.90;;;;;;5038984;28;20052;-70
2022/08/04 07:28:28;;;;;;;9.60;3.72;;;27.10;99.90;;;;;;5038974;28;20042;-68
2022/08/04 07:30:55;;;;;;;9.95;3.92;;;27.30;99.90;;;;;;5038887;28;20041;-68
2022/08/04 07:33:22;;;;;;;10.68;3.47;;;27.40;99.90;;;;;;5037783;28;20053;-67
2022/08/04 07:35:53;;;;;;;8.40;3.20;;;27.50;99.90;;;;;;5038701;28;20041;-69
2022/08/04 07:38:19;;;;;;;12.45;3.35;;;27.50;99.90;;;;;;5038928;28;20116;-68
2022/08/04 07:40:45;;;;;;;7.82;3.22;;;27.50;99.90;;;;;;5038586;28;20128;-68
2022/08/04 07:43:15;;;;;;;10.90;3.80;;;27.50;99.90;;;;;;5037736;28;20050;-68
2022/08/04 07:45:41;;;;;;;9.35;3.10;;;27.50;99.90;;;;;;5038823;28;20049;-68
2022/08/04 07:48:09;;;;;;;12.80;2.72;;;27.60;99.90;;;;;;5020901;28;20124;-69
2022/08/04 07:50:34;;;;;;;9.00;2.58;;;27.70;99.90;;;;;;5038455;28;20041;-70
2022/08/04 07:53:00;;;;;;;9.13;2.50;;;27.70;99.90;;;;;;5037419;28;20171;-71
2022/08/04 07:55:28;;;;;;;10.57;2.90;;;27.90;99.90;;;;;;5038429;28;20132;-70
2022/08/04 07:57:54;;;;;;;11.13;2.70;;;28.10;99.90;;;;;;5038566;28;20124;-68
2022/08/04 08:00:20;;;;;;;9.63;2.67;;;28.10;99.90;;;;;;5038470;28;20112;-68
2022/08/04 08:02:49;;;;;;;9.68;2.80;;;28.10;99.90;;;;;;5020338;28;20061;-69
2022/08/04 08:05:17;;;;;;;9.43;2.63;;;28.40;99.90;;;;;;5038034;28;20312;-69
2022/08/04 08:07:50;;;;;;;5.95;2.50;;;28.60;99.90;;;;;;5037015;28;20423;-68
2022/08/04 08:10:16;;;;;;;10.85;2.80;;;28.80;99.90;;;;;;5037917;28;20441;-69
2022/08/04 08:12:43;;;;;;;10.27;3.00;;;28.90;99.90;;;;;;5037915;28;20045;-68
2022/08/04 08:15:11;;;;;;;10.50;2.65;;;28.90;99.90;;;;;;5037593;28;20386;-68
2022/08/04 08:17:37;;;;;;;11.35;2.80;;;29.00;99.90;;;;;;5020637;28;20052;-69
2022/08/04 08:20:05;;;;;;;10.20;3.05;;;28.90;99.90;;;;;;5020463;28;20311;-69
2022/08/04 08:22:31;;;;;;;9.32;2.85;;;29.00;99.90;;;;;;5037053;28;20099;-69
2022/08/04 08:24:57;;;;;;;9.35;2.85;;;29.00;99.90;;;;;;5037113;28;20038;-69
2022/08/04 08:27:23;;;;;;;10.73;2.53;;;28.90;99.90;;;;;;5037651;28;20427;-68
2022/08/04 08:29:49;;;;;;;10.65;2.53;;;28.70;99.90;;;;;;5036752;28;20041;-68
2022/08/04 08:32:15;;;;;;;9.23;2.60;;;28.50;99.90;;;;;;5037756;28;20122;-68
2022/08/04 08:34:43;;;;;;;7.03;2.60;;;28.10;99.90;;;;;;5037846;28;20041;-67
2022/08/04 08:37:42;;;;;;;7.47;2.58;;;28.00;99.90;;;;;;5037705;28;20037;-68
2022/08/04 08:40:34;;;;;;;13.18;2.83;;;27.80;99.90;;;;;;5036763;28;20042;-68
2022/08/04 08:43:29;;;;;;;9.07;2.88;;;27.60;99.90;;;;;;5036537;28;20072;-68
2022/08/04 08:46:37;;;;;;;7.90;2.85;;;27.70;99.90;;;;;;5035416;28;20049;-68
2022/08/04 08:49:14;;;;;;;9.77;3.33;;;28.00;99.90;;;;;;5030845;28;20053;-68
2022/08/04 08:52:10;;;;;;;7.15;3.30;;;28.20;99.90;;;;;;5036458;28;20083;-68
2022/08/04 08:55:13;;;;;;;12.65;3.92;;;28.30;99.90;;;;;;5036662;28;20061;-71
2022/08/04 08:57:59;;;;;;;9.82;4.07;;;28.10;99.90;;;;;;5036268;28;20430;-69
2022/08/04 09:00:34;;;;;;;15.05;4.07;;;28.20;99.90;;;;;;5037601;28;20038;-69
2022/08/04 09:03:24;;;;;;;11.10;3.90;;;27.90;99.90;;;;;;5035751;28;20053;-69
2022/08/04 09:06:17;;;;;;;8.35;3.63;;;28.00;99.90;;;;;;5037273;28;20041;-69
2022/08/04 09:09:13;;;;;;;11.68;4.28;;;28.20;99.90;;;;;;5037312;28;20406;-71
2022/08/04 09:12:17;;;;;;;7.10;4.32;;;28.30;99.90;;;;;;5037118;28;20049;-71
2022/08/04 09:15:12;;;;;;;9.05;3.60;;;27.90;99.90;;;;;;5035877;28;20046;-71
2022/08/04 09:17:46;;;;;;;11.75;3.35;;;27.90;99.90;;;;;;5037291;28;20072;-70
2022/08/04 09:20:36;;;;;;;15.45;4.15;;;27.90;99.90;;;;;;5035763;28;20136;-71
2022/08/04 09:23:23;;;;;;;13.65;4.70;;;27.80;99.90;;;;;;5035717;28;20041;-71
2022/08/04 09:26:05;;;;;;;17.17;4.50;;;27.60;99.90;;;;;;5036008;28;20121;-71
2022/08/04 09:28:42;;;;;;;15.77;5.53;;;27.80;99.90;;;;;;5037060;28;20060;-71
2022/08/04 09:31:13;;;;;;;10.50;4.30;;;27.80;99.90;;;;;;5035512;28;20422;-72
2022/08/04 09:34:03;;;;;;;11.77;4.72;;;27.90;99.90;;;;;;5018813;28;20033;-71
2022/08/04 09:36:31;;;;;;;12.57;4.90;;;28.00;99.90;;;;;;5036808;28;20077;-70
2022/08/04 09:39:19;;;;;;;12.23;5.63;;;28.20;99.90;;;;;;5035977;28;20077;-70
2022/08/04 09:42:16;;;;;;;16.27;5.25;;;28.20;99.90;;;;;;5036402;28;20426;-71
2022/08/04 09:44:54;;;;;;;15.05;5.35;;;28.30;99.90;;;;;;5035720;28;20053;-70
2022/08/04 09:47:38;;;;;;;10.23;5.20;;;28.20;99.90;;;;;;5036496;28;20422;-69
2022/08/04 09:50:16;;;;;;;14.60;4.78;;;28.20;99.90;;;;;;5036621;28;20312;-72
2022/08/04 09:52:56;;;;;;;11.93;4.60;;;28.50;99.90;;;;;;5035776;28;20041;-70
2022/08/04 09:55:53;;;;;;;9.25;3.70;;;28.70;99.90;;;;;;5036516;28;20063;-69
2022/08/04 09:58:45;;;;;;;10.50;3.40;;;28.90;99.90;;;;;;5035583;28;20343;-70
2022/08/04 10:01:21;;;;;;;18.80;4.47;;;29.00;99.90;;;;;;5036440;28;20053;-73
2022/08/04 10:04:14;;;;;;;10.98;3.80;;;29.20;99.90;;;;;;5035918;28;20046;-71
2022/08/04 10:07:18;;;;;;;10.10;4.07;;;29.20;99.90;;;;;;5035105;28;20099;-72
2022/08/04 10:09:51;;;;;;;10.18;3.08;;;29.20;99.90;;;;;;5000747;28;20042;-72
2022/08/04 10:12:40;;;;;;;6.18;3.25;;;29.30;99.90;;;;;;5036236;28;20042;-69
2022/08/04 10:15:15;;;;;;;6.85;3.05;;;29.30;99.90;;;;;;5035494;28;20037;-87
2022/08/04 10:17:53;;;;;;;12.45;2.85;;;29.10;99.90;;;;;;5035284;28;20046;-86
2022/08/04 10:20:40;;;;;;;5.63;2.00;;;28.50;99.90;;;;;;5036567;28;20057;-87
2022/08/04 10:23:15;;;;;;;6.88;1.92;;;28.20;99.90;;;;;;5036407;28;20042;-68
2022/08/04 10:26:04;;;;;;;6.80;1.70;;;28.20;99.90;;;;;;5036905;28;20179;-69
2022/08/04 10:28:34;;;;;;;8.48;1.50;;;28.50;99.90;;;;;;5036141;28;20052;-69
2022/08/04 10:31:05;;;;;;;10.07;1.80;;;28.10;99.90;;;;;;5036334;28;20075;-70
2022/08/04 10:33:41;;;;;;;6.10;1.50;;;28.20;99.90;;;;;;5034722;28;20120;-71
2022/08/04 10:36:10;;;;;;;6.78;1.88;;;28.30;99.90;;;;;;5036672;28;20219;-70
2022/08/04 10:39:17;;;;;;;6.63;1.50;;;28.50;99.90;;;;;;5039125;28;20068;-70
2022/08/04 10:42:15;;;;;;;8.25;1.77;;;28.60;99.90;;;;;;5039913;28;20041;-71
2022/08/04 10:45:02;;;;;;;9.80;1.52;;;28.90;99.90;;;;;;5039886;28;20055;-74
2022/08/04 10:47:36;;;;;;;7.03;1.65;;;29.10;99.90;;;;;;5039994;28;20030;-70
2022/08/04 10:50:02;;;;;;;9.25;1.77;;;29.10;99.90;;;;;;5039168;28;20494;-71
2022/08/04 10:52:37;;;;;;;8.77;1.90;;;29.10;99.90;;;;;;5039908;28;20046;-70
2022/08/04 10:55:20;;;;;;;9.40;1.70;;;29.10;99.90;;;;;;5039652;28;20072;-71
2022/08/04 10:57:50;;;;;;;10.05;2.33;;;29.20;99.90;;;;;;5038885;28;20046;-70
2022/08/04 11:00:24;;;;;;;7.80;1.40;;;29.40;99.90;;;;;;5038418;28;20045;-70
2022/08/04 11:03:25;;;;;;;9.10;2.53;;;29.70;99.90;;;;;;5038784;28;20045;-70
2022/08/04 11:05:57;;;;;;;10.90;2.15;;;29.70;99.90;;;;;;5039676;28;20116;-70
2022/08/04 11:08:44;;;;;;;8.20;1.88;;;29.60;99.90;;;;;;5038306;28;20052;-69
2022/08/04 11:11:09;;;;;;;;;;;29.60;99.90;;;;;;5039631;28;20045;-69
2022/08/04 11:14:02;;;;;;;9.40;2.10;;;29.40;99.90;;;;;;5039258;28;19917;-70
2022/08/04 11:16:38;;;;;;;8.75;2.17;;;29.50;99.90;;;;;;5036882;28;20045;-69
2022/08/04 11:19:24;;;;;;;10.00;2.30;;;29.60;99.90;;;;;;5038452;28;20077;-70
2022/08/04 11:21:56;;;;;;;10.18;2.28;;;29.60;99.90;;;;;;5039209;28;20048;-70
2022/08/04 11:24:32;;;;;;;10.95;2.22;;;29.20;99.90;;;;;;5021772;28;20053;-70
2022/08/04 11:27:02;;;;;;;9.95;2.15;;;29.30;99.90;;;;;;5039106;28;20124;-70
2022/08/04 11:30:02;;;;;;;8.25;2.22;;;29.50;99.90;;;;;;5039174;28;20033;-70
2022/08/04 11:33:06;;;;;;;8.68;2.60;;;29.70;99.90;;;;;;5036828;28;20111;-70
2022/08/04 11:36:02;;;;;;;8.75;2.13;;;29.70;99.90;;;;;;5039181;28;20091;-69
2022/08/04 11:38:37;;;;;;;5.47;2.43;;;29.30;99.90;;;;;;5037973;28;20053;-70
2022/08/04 11:41:09;;;;;;;9.52;1.88;;;29.20;99.90;;;;;;5038930;28;20045;-68
2022/08/04 11:43:47;;;;;;;6.43;1.48;;;29.20;99.90;;;;;;5037584;28;20037;-70
2022/08/04 11:46:22;;;;;;;5.18;1.60;;;29.10;99.90;;;;;;5037662;28;20053;-69
2022/08/04 11:48:57;;;;;;;5.63;1.35;;;29.20;99.90;;;;;;5037805;28;20041;-69
2022/08/04 11:51:26;;;;;;;5.13;1.25;;;29.30;99.90;;;;;;5037763;28;20064;-69
2022/08/04 11:53:51;;;;;;;4.45;1.02;;;29.30;99.90;;;;;;5038541;28;20033;-69
2022/08/04 11:56:17;;;;;;;3.72;1.20;;;29.20;99.90;;;;;;5038451;28;20411;-69
2022/08/04 11:58:43;;;;;;;3.92;1.30;;;29.30;99.90;;;;;;5038589;28;20039;-69
2022/08/04 12:01:33;;;;;;;8.30;1.33;;;28.90;99.90;;;;;;5038131;28;20058;-69
2022/08/04 12:04:51;;;;;;;4.25;1.00;;;28.80;99.90;;;;;;5038078;28;20049;-69
2022/08/04 12:07:34;;;;;;;3.95;0.93;;;28.80;99.90;;;;;;5000204;28;20057;-68
2022/08/04 12:10:23;;;;;;;4.32;1.25;;;28.80;99.90;;;;;;5037577;28;20045;-69
2022/08/04 12:12:58;;;;;;;3.03;0.95;;;28.80;99.90;;;;;;5038364;28;20080;-68
2022/08/04 12:15:36;;;;;;;3.40;1.40;;;28.60;99.90;;;;;;5038498;28;20042;-68
2022/08/04 12:18:34;;;;;;;4.60;1.50;;;28.40;99.90;;;;;;5038078;28;20429;-68
2022/08/04 12:21:04;;;;;;;7.28;1.20;;;28.20;99.90;;;;;;5038204;28;20046;-68
2022/08/04 12:23:37;;;;;;;5.90;1.23;;;28.10;99.90;;;;;;5037984;28;20083;-68
2022/08/04 12:26:08;;;;;;;6.15;1.55;;;27.90;99.90;;;;;;5038064;28;20111;-68
2022/08/04 12:28:39;;;;;;;4.78;1.50;;;27.90;99.90;;;;;;5038067;28;20037;-68
2022/08/04 12:31:27;;;;;;;3.53;1.48;;;27.90;99.90;;;;;;5037827;28;20037;-68
2022/08/04 12:33:58;;;;;;;3.08;1.10;;;28.00;99.90;;;;;;5037413;28;20037;-68
2022/08/04 12:36:42;;;;;;;3.17;0.90;;;28.00;99.90;;;;;;5037949;28;20073;-68
2022/08/04 12:39:17;;;;;;;3.83;1.13;;;28.10;99.90;;;;;;5036637;28;20324;-68
2022/08/04 12:42:15;;;;;;;6.75;1.10;;;28.00;99.90;;;;;;5037817;28;20329;-68
2022/08/04 12:44:44;;;;;;;2.75;0.90;;;27.90;99.90;;;;;;5031590;28;20049;-68
2022/08/04 12:47:11;;;;;;;3.17;0.80;;;27.70;99.90;;;;;;5037542;28;20128;-68
2022/08/04 12:49:41;;;;;;;3.83;1.20;;;27.60;99.90;;;;;;5037772;28;20045;-68
2022/08/04 12:52:08;;;;;;;5.10;1.00;;;27.30;99.90;;;;;;5036302;28;20041;-70
2022/08/04 12:54:36;;;;;;;4.90;1.27;;;27.40;99.90;;;;;;5037570;28;20029;-68
2022/08/04 12:57:05;;;;;;;2.65;1.00;;;27.60;99.90;;;;;;5037124;28;20080;-69
2022/08/04 12:59:43;;;;;;;4.60;1.13;;;27.50;99.90;;;;;;5037110;28;20088;-70
2022/08/04 13:02:28;;;;;;;2.67;0.90;;;27.60;99.90;;;;;;5037229;28;20377;-70
2022/08/04 13:04:58;;;;;;;3.38;0.82;;;27.80;99.90;;;;;;5037298;28;20046;-69
2022/08/04 13:07:27;;;;;;;4.97;0.90;;;27.90;99.90;;;;;;5037409;28;20049;-70
2022/08/04 13:09:52;;;;;;;3.20;0.90;;;28.20;99.90;;;;;;5036977;28;20041;-70
2022/08/04 13:12:22;;;;;;;5.63;1.10;;;28.40;99.90;;;;;;5037287;28;20059;-69
2022/08/04 13:14:51;;;;;;;2.72;1.10;;;28.40;99.90;;;;;;5037135;28;20339;-70
2022/08/04 13:17:18;;;;;;;4.00;1.02;;;28.20;99.90;;;;;;5037160;28;20047;-69
2022/08/04 13:19:49;;;;;;;2.72;0.65;;;28.10;99.90;;;;;;5036942;28;20045;-69
2022/08/04 13:22:27;;;;;;;1.90;0.90;;;28.30;99.90;;;;;;5037025;28;20037;-70
2022/08/04 13:24:56;;;;;;;2.83;1.00;;;28.40;99.90;;;;;;5036899;28;20446;-69
2022/08/04 13:27:23;;;;;;;1.95;0.82;;;28.20;99.90;;;;;;5036694;28;20102;-69
2022/08/04 13:29:54;;;;;;;4.13;0.93;;;28.10;99.90;;;;;;5036957;28;20046;-70
2022/08/04 13:32:22;;;;;;;3.25;0.90;;;28.20;99.90;;;;;;5035420;28;20068;-70